Terminal Aerodrome Forecast
Issued by NWS

Home | Current Version | Previous Version | Text Only | Print | Product List | Glossary On
Versions: 1 2 3 4 5 6 7 8 9 10 11 12 13 14 15 16 17 18 19 20 21
000
FTUS41 KPBZ 300444 AAA
TAFZZV
TAF AMD
KZZV 300444Z 3005/3024 19004KT 5SM BR OVC012
     FM301400 21010KT P6SM BKN025
     FM302200 22010G18KT P6SM VCTS BKN035CB=

USA.gov is the U.S. government's official web portal to all federal, state and local government web resources and services.